Aviation Digital Data Service (ADDS)

Output produced by METARs form (1657 UTC 03 December 2021)
found at http://www.aviationweather.gov/metar/data/
 
Forecast for: OPKC (KARACHI INTL ARP, PK)
Text: TAF OPKC 031530Z 0318/0403 05007KT 5000 HZ NSC
Forecast period: 1800 UTC 03 December 2021 to 0300 UTC 04 December 2021
Forecast type: FROM: standard forecast or significant change
Winds: from the NE (50 degrees) at 8 MPH (7 knots; 3.6 m/s)
Visibility: 3 miles (5 km)
Ceiling: unknown
Clouds: missing
Weather: HZ  (haze)
Text: TEMPO 0400/0403 02004KT 3000 HZ NSC
Forecast period: 0000 to 0300 UTC 04 December 2021
Forecast type: TEMPORARY: The following changes expected for less than half the time period
Winds: from the NNE (20 degrees) at 5 MPH (4 knots; 2.1 m/s)
Visibility: 1.86 miles (2.99 km)
Ceiling: unknown
Clouds: missing
Weather: HZ  (haze)